Time;durP1;ratioP1;P1;durP2;ratioP2;P2;SDS_P1;SDS_P2;PMS_P1;PMS_P2;Temp;Humidity;BMP_temperature;BMP_pressure;BME280_temperature;BME280_humidity;BME280_pressure;Samples;Min_cycle;Max_cycle;Signal;HPM_P1;HPM_P2
2022/09/02 00:00:51;;;;;;;;;9.75;9.25;;;;;23.90;43.57;100710.44;5094703;28;45078;-82
2022/09/02 00:03:18;;;;;;;;;9.00;9.00;;;;;24.03;43.51;100727.16;5094540;28;45057;-82
2022/09/02 00:05:43;;;;;;;;;11.00;10.00;;;;;24.01;43.42;100729.00;5094106;28;45640;-83
2022/09/02 00:08:09;;;;;;;;;10.25;10.25;;;;;23.81;43.73;100692.72;5093945;28;44889;-82
2022/09/02 00:10:39;;;;;;;;;9.00;8.25;;;;;23.98;43.83;100719.22;5093216;28;44921;-83
2022/09/02 00:13:06;;;;;;;;;10.75;10.00;;;;;23.95;43.73;100716.59;5094698;28;45358;-83
2022/09/02 00:15:32;;;;;;;;;10.00;10.00;;;;;23.93;44.20;100715.72;5093526;28;45409;-83
2022/09/02 00:17:59;;;;;;;;;11.00;11.00;;;;;23.90;43.69;100710.44;5094337;28;45108;-83
2022/09/02 00:20:29;;;;;;;;;10.00;10.00;;;;;23.88;43.99;100709.56;5093335;28;44899;-83
2022/09/02 00:22:55;;;;;;;;;8.75;8.00;;;;;23.84;44.29;100697.13;5093732;28;45032;-83
2022/09/02 00:25:20;;;;;;;;;7.25;7.25;;;;;23.81;43.78;100702.59;5092161;28;45311;-83
2022/09/02 00:27:46;;;;;;;;;8.00;7.50;;;;;23.78;44.15;100699.94;5092589;28;45218;-83
2022/09/02 00:30:13;;;;;;;;;11.00;9.75;;;;;23.74;44.67;100695.56;5075435;28;45483;-82
2022/09/02 00:32:38;;;;;;;;;9.75;9.75;;;;;23.69;44.59;100692.97;5094255;28;44906;-83
2022/09/02 00:35:04;;;;;;;;;10.00;8.75;;;;;23.62;44.90;100685.94;5093326;27;45913;-83
2022/09/02 00:37:30;;;;;;;;;9.00;9.00;;;;;23.60;44.87;100690.47;5093727;28;45544;-83
2022/09/02 00:39:56;;;;;;;;;9.50;9.50;;;;;23.56;45.00;100688.75;5093296;28;45090;-82
2022/09/02 00:42:22;;;;;;;;;10.50;10.00;;;;;23.51;45.37;100688.81;5092166;28;45076;-83
2022/09/02 00:44:48;;;;;;;;;9.00;9.00;;;;;23.43;45.21;100693.44;5093503;28;45464;-84
2022/09/02 00:47:17;;;;;;;;;9.75;9.75;;;;;23.29;45.38;100674.94;5093540;28;45093;-83
2022/09/02 00:49:46;;;;;;;;;10.00;9.00;;;;;23.31;45.64;100693.69;5093414;28;44937;-83
2022/09/02 00:52:22;;;;;;;;;10.75;10.75;;;;;23.21;45.82;100686.72;5091632;28;45366;-81
2022/09/02 00:55:06;;;;;;;;;9.25;8.25;;;;;23.09;45.50;100677.97;5091538;28;47610;-83
2022/09/02 00:57:46;;;;;;;;;8.25;8.25;;;;;23.04;46.39;100676.28;5090927;28;45346;-83
2022/09/02 01:00:16;;;;;;;;;8.50;8.00;;;;;23.07;46.25;100687.84;5093484;28;45026;-83
2022/09/02 01:02:45;;;;;;;;;9.00;8.75;;;;;23.03;46.38;100685.25;5093443;28;45018;-83
2022/09/02 01:05:14;;;;;;;;;10.50;9.50;;;;;22.89;46.26;100672.09;5092913;28;45892;-82
2022/09/02 01:07:40;;;;;;;;;10.75;10.75;;;;;22.96;46.18;100681.81;5093326;28;45249;-82
2022/09/02 01:10:17;;;;;;;;;10.25;10.00;;;;;22.95;46.68;100679.13;5092823;28;45032;-82
2022/09/02 01:12:42;;;;;;;;;10.25;10.25;;;;;22.88;46.31;100673.88;5092258;28;45155;-82
2022/09/02 01:15:10;;;;;;;;;10.00;9.75;;;;;22.81;46.57;100657.91;5092733;28;45430;-83
2022/09/02 01:17:42;;;;;;;;;12.00;10.25;;;;;22.89;46.66;100678.31;5093036;28;45221;-82
2022/09/02 01:20:11;;;;;;;;;10.00;9.75;;;;;22.79;46.80;100678.47;5093000;28;45074;-82
2022/09/02 01:22:38;;;;;;;;;9.00;9.00;;;;;22.85;46.90;100683.72;5092869;28;44910;-83
2022/09/02 01:25:11;;;;;;;;;9.50;9.00;;;;;22.78;46.96;100669.56;5092415;28;45961;-83
2022/09/02 01:27:36;;;;;;;;;8.00;8.00;;;;;22.64;46.89;100650.13;5091387;28;45217;-82
2022/09/02 01:30:05;;;;;;;;;11.00;10.25;;;;;22.77;47.32;100672.28;5092703;28;45147;-83
2022/09/02 01:32:30;;;;;;;;;8.75;8.25;;;;;22.60;47.01;100645.75;5092315;28;45013;-82
2022/09/02 01:34:56;;;;;;;;;11.50;11.25;;;;;22.68;47.12;100662.59;5091910;28;45120;-83
2022/09/02 01:37:22;;;;;;;;;9.00;9.00;;;;;22.72;47.56;100668.78;5089965;28;45212;-82
2022/09/02 01:39:48;;;;;;;;;9.00;8.25;;;;;22.73;47.40;100670.56;5090970;28;44937;-82
2022/09/02 01:42:14;;;;;;;;;10.00;10.00;;;;;22.74;47.26;100675.88;5089527;28;45242;-83
2022/09/02 01:44:42;;;;;;;;;11.00;10.75;;;;;22.78;47.43;100674.91;5092299;28;45288;-82
2022/09/02 01:47:10;;;;;;;;;11.25;10.00;;;;;22.70;48.28;100658.06;5091719;28;45056;-83
2022/09/02 01:49:35;;;;;;;;;10.00;10.00;;;;;22.77;47.21;100674.94;5092526;28;44954;-83
2022/09/02 01:52:01;;;;;;;;;8.33;8.33;;;;;22.85;46.71;100730.16;5092418;28;54782;-83
2022/09/02 01:54:26;;;;;;;;;10.50;10.25;;;;;22.86;46.55;100733.75;5090244;28;45844;-83
2022/09/02 01:56:52;;;;;;;;;11.50;11.00;;;;;22.82;46.22;100679.31;5091498;28;44996;-83
2022/09/02 01:59:17;;;;;;;;;10.25;10.25;;;;;22.89;46.28;100744.44;5091565;28;45032;-82
2022/09/02 02:01:44;;;;;;;;;8.00;7.75;;;;;22.78;45.87;100717.78;5092018;28;44971;-83
2022/09/02 02:04:10;;;;;;;;;10.00;10.00;;;;;22.91;45.77;100678.31;5092340;28;45060;-83
2022/09/02 02:06:40;;;;;;;;;8.50;8.00;;;;;22.96;46.25;100688.97;5091922;28;45168;-83
2022/09/02 02:09:05;;;;;;;;;7.25;7.25;;;;;22.98;45.47;100722.84;5091477;28;45013;-83
2022/09/02 02:11:31;;;;;;;;;10.00;10.00;;;;;22.98;46.00;100695.16;5091148;28;45094;-83
2022/09/02 02:13:56;;;;;;;;;10.50;9.50;;;;;22.86;46.10;100682.84;5091875;28;45488;-83
2022/09/02 02:16:22;;;;;;;;;9.00;9.00;;;;;22.99;45.52;100708.53;5092230;28;45079;-83
2022/09/02 02:18:47;;;;;;;;;8.00;8.00;;;;;22.99;46.55;100700.50;5092027;28;44957;-83
2022/09/02 02:21:12;;;;;;;;;11.75;9.75;;;;;22.93;46.37;100687.22;5091486;28;45192;-83
2022/09/02 02:23:38;;;;;;;;;7.75;7.75;;;;;22.95;46.87;100700.56;5091661;28;45363;-82
2022/09/02 02:26:04;;;;;;;;;10.00;9.00;;;;;22.89;46.83;100702.44;5089003;28;45521;-83
2022/09/02 02:28:29;;;;;;;;;10.75;10.25;;;;;22.82;47.04;100694.50;5091827;28;45149;-83
2022/09/02 02:30:55;;;;;;;;;8.75;8.75;;;;;22.60;47.16;100662.69;5091732;28;45189;-83
2022/09/02 02:33:20;;;;;;;;;8.75;8.75;;;;;22.52;47.07;100670.00;5089982;28;47668;-83
2022/09/02 02:35:46;;;;;;;;;9.00;9.00;;;;;22.62;47.99;100682.31;5091732;28;45048;-83
2022/09/02 02:38:11;;;;;;;;;10.00;10.00;;;;;22.51;48.05;100675.34;5091322;28;45008;-83
2022/09/02 02:40:37;;;;;;;;;9.00;9.00;;;;;22.37;48.45;100662.19;5090336;28;44982;-83
2022/09/02 02:43:02;;;;;;;;;8.00;8.00;;;;;22.44;48.55;100674.56;5090030;28;45164;-83
2022/09/02 02:45:28;;;;;;;;;9.25;8.75;;;;;22.30;48.02;100652.47;5091563;28;44900;-83
2022/09/02 02:47:53;;;;;;;;;9.75;9.75;;;;;22.40;47.57;100671.03;5090299;28;45196;-82
2022/09/02 02:50:20;;;;;;;;;9.25;8.00;;;;;22.36;48.04;100661.31;5091818;28;45127;-82
2022/09/02 02:52:47;;;;;;;;;12.75;12.00;;;;;22.48;47.81;100672.75;5091274;28;45638;-82
2022/09/02 02:55:14;;;;;;;;;11.00;10.00;;;;;22.54;48.05;100681.56;5090324;28;45533;-82
2022/09/02 02:57:43;;;;;;;;;10.50;10.50;;;;;22.49;48.35;100664.66;5090944;28;44970;-83
2022/09/02 03:00:13;;;;;;;;;11.00;11.00;;;;;22.56;48.16;100679.75;5090183;28;44902;-82
2022/09/02 03:02:38;;;;;;;;;10.00;9.00;;;;;22.55;48.36;100677.97;5087657;28;46493;-82
2022/09/02 03:05:06;;;;;;;;;11.25;10.25;;;;;22.50;48.49;100665.53;5091115;28;45081;-82
2022/09/02 03:07:31;;;;;;;;;12.00;11.00;;;;;22.51;48.16;100667.31;5090733;28;45081;-83
2022/09/02 03:09:57;;;;;;;;;10.75;10.00;;;;;22.53;48.55;100668.19;5090270;28;45080;-83
2022/09/02 03:12:23;;;;;;;;;11.50;11.00;;;;;22.48;48.19;100654.88;5088441;28;45423;-83
2022/09/02 03:14:49;;;;;;;;;10.75;10.25;;;;;22.54;48.12;100653.88;5090765;28;45735;-83
2022/09/02 03:17:14;;;;;;;;;9.75;9.75;;;;;22.58;48.35;100656.50;5089993;28;45019;-83
2022/09/02 03:19:39;;;;;;;;;9.00;8.50;;;;;22.47;48.33;100633.47;5090923;28;44941;-82
2022/09/02 03:22:06;;;;;;;;;10.00;10.00;;;;;22.57;48.80;100657.41;5090913;28;45672;-83
2022/09/02 03:24:31;;;;;;;;;12.00;11.00;;;;;22.48;48.73;100637.91;5091175;28;45029;-83
2022/09/02 03:26:57;;;;;;;;;10.00;10.00;;;;;22.49;48.88;100643.25;5088090;28;45501;-82
2022/09/02 03:29:22;;;;;;;;;11.00;11.00;;;;;22.49;48.85;100643.25;5091060;28;45628;-82
2022/09/02 03:31:47;;;;;;;;;11.00;10.50;;;;;22.50;48.23;100649.47;5091255;28;45149;-83
2022/09/02 03:34:13;;;;;;;;;10.50;10.25;;;;;22.51;47.95;100648.56;5090630;28;45111;-82
2022/09/02 03:36:39;;;;;;;;;12.33;11.00;;;;;22.45;47.76;100624.56;5090000;28;47732;-83
2022/09/02 03:39:09;;;;;;;;;10.25;10.00;;;;;22.58;47.88;100637.75;5090749;28;45235;-84
2022/09/02 03:41:34;;;;;;;;;13.25;12.75;;;;;22.62;47.91;100633.22;5088930;28;46055;-83
2022/09/02 03:44:00;;;;;;;;;14.00;13.00;;;;;22.65;47.76;100631.34;5091150;28;44943;-83
2022/09/02 03:46:26;;;;;;;;;14.75;14.00;;;;;22.70;47.86;100628.59;5090890;28;44945;-83
2022/09/02 03:48:52;;;;;;;;;15.75;14.75;;;;;22.69;47.98;100625.94;5091776;28;45265;-83
2022/09/02 03:51:21;;;;;;;;;16.00;15.75;;;;;22.75;47.69;100632.09;5090551;28;45644;-83
2022/09/02 03:53:47;;;;;;;;;17.25;16.25;;;;;22.73;48.02;100625.88;5090697;28;45493;-83
2022/09/02 03:56:14;;;;;;;;;18.25;17.75;;;;;22.76;47.94;100635.63;5089701;28;45286;-83
2022/09/02 03:58:44;;;;;;;;;18.00;18.00;;;;;22.69;47.90;100613.44;5089494;28;45076;-83
2022/09/02 04:01:19;;;;;;;;;19.75;18.75;;;;;22.81;47.67;100640.03;5090052;28;45315;-83
2022/09/02 04:03:45;;;;;;;;;20.75;20.25;;;;;22.84;48.27;100644.44;5090637;28;45522;-83
2022/09/02 04:06:12;;;;;;;;;21.75;20.75;;;;;22.89;48.60;100635.44;5091163;28;45231;-83
2022/09/02 04:08:43;;;;;;;;;17.25;16.50;;;;;22.91;48.55;100638.13;5072252;28;45296;-83
2022/09/02 04:11:12;;;;;;;;;18.75;18.75;;;;;22.92;48.57;100639.88;5092563;27;46018;-83
2022/09/02 04:13:37;;;;;;;;;18.75;17.75;;;;;22.94;48.58;100635.38;5092456;28;45208;-83
2022/09/02 04:16:08;;;;;;;;;22.75;21.25;;;;;22.95;48.75;100625.53;5093668;28;44984;-83
2022/09/02 04:18:34;;;;;;;;;22.50;20.50;;;;;22.96;48.38;100620.16;5093733;28;44998;-83
2022/09/02 04:21:00;;;;;;;;;22.50;22.25;;;;;22.96;48.23;100620.16;5091827;28;46035;-83
2022/09/02 04:23:27;;;;;;;;;23.25;21.00;;;;;22.93;48.78;100612.16;5093249;28;45179;-83
2022/09/02 04:25:52;;;;;;;;;21.75;20.75;;;;;22.98;48.85;100625.47;5092075;28;44985;-83
2022/09/02 04:28:17;;;;;;;;;22.00;20.75;;;;;22.94;48.88;100630.00;5094395;28;45167;-83
2022/09/02 04:30:43;;;;;;;;;23.00;20.33;;;;;22.97;48.76;100646.03;5092657;28;62303;-83
2022/09/02 04:33:09;;;;;;;;;22.50;22.25;;;;;22.96;48.94;100644.28;5094437;28;45261;-83
2022/09/02 04:35:40;;;;;;;;;20.75;19.50;;;;;22.88;49.62;100622.97;5093680;28;45036;-83
2022/09/02 04:38:05;;;;;;;;;15.75;15.75;;;;;22.80;50.19;100616.81;5093437;28;45016;-83
2022/09/02 04:40:30;;;;;;;;;22.00;21.50;;;;;22.79;50.67;100617.72;5090138;28;46629;-83
2022/09/02 04:42:55;;;;;;;;;21.33;20.00;;;;;22.81;50.80;100623.97;5091435;28;57597;-83
2022/09/02 04:45:21;;;;;;;;;21.50;20.25;;;;;22.69;50.67;100597.38;5093410;28;45105;-83
2022/09/02 04:47:47;;;;;;;;;24.00;22.75;;;;;22.72;50.82;100605.34;5093303;28;45010;-83
2022/09/02 04:50:12;;;;;;;;;21.67;21.67;;;;;22.60;50.97;100593.03;5093048;28;51960;-83
2022/09/02 04:52:37;;;;;;;;;21.00;21.00;;;;;22.61;51.22;100593.91;5091394;28;54273;-83
2022/09/02 04:55:05;;;;;;;;;21.00;19.00;;;;;22.57;51.03;100600.28;5093313;28;45395;-83
2022/09/02 04:57:32;;;;;;;;;20.75;19.75;;;;;22.52;51.51;100595.00;5091430;28;44978;-82
2022/09/02 04:59:57;;;;;;;;;19.00;17.50;;;;;22.47;51.49;100585.25;5092155;28;45630;-83
2022/09/02 05:02:23;;;;;;;;;19.75;18.00;;;;;22.42;51.83;100588.03;5093442;28;45266;-82
2022/09/02 05:04:48;;;;;;;;;21.50;21.25;;;;;22.38;52.29;100592.53;5093388;28;45008;-83
2022/09/02 05:07:14;;;;;;;;;21.75;21.00;;;;;22.37;52.41;100592.56;5090848;28;45052;-82
2022/09/02 05:09:40;;;;;;;;;20.50;19.75;;;;;22.36;52.34;100591.69;5092539;28;45076;-82
2022/09/02 05:12:06;;;;;;;;;19.75;18.25;;;;;22.34;52.69;100589.94;5092283;28;45194;-82
2022/09/02 05:14:31;;;;;;;;;20.00;19.00;;;;;22.30;52.65;100589.09;5092411;28;45095;-82
2022/09/02 05:16:59;;;;;;;;;21.25;19.25;;;;;22.34;52.66;100600.63;5092927;28;44981;-83
2022/09/02 05:19:25;;;;;;;;;18.75;18.50;;;;;22.35;52.69;100607.75;5091548;28;45115;-82
2022/09/02 05:21:56;;;;;;;;;22.25;20.25;;;;;22.26;52.87;100595.38;5092018;27;45133;-82
2022/09/02 05:24:22;;;;;;;;;19.50;18.75;;;;;22.37;53.39;100614.00;5092193;28;44998;-83
2022/09/02 05:26:49;;;;;;;;;18.00;17.75;;;;;22.33;53.68;100607.78;5090536;28;45210;-83
2022/09/02 05:29:19;;;;;;;;;19.00;18.50;;;;;22.32;54.01;100619.41;5092451;28;45047;-83
2022/09/02 05:31:44;;;;;;;;;14.75;14.25;;;;;22.22;54.17;100606.19;5092840;28;45602;-83
2022/09/02 05:34:11;;;;;;;;;17.50;16.75;;;;;22.28;53.98;100619.50;5093085;28;45115;-82
2022/09/02 05:36:36;;;;;;;;;14.75;14.50;;;;;22.28;54.33;100611.44;5074132;28;45082;-82
2022/09/02 05:39:03;;;;;;;;;14.50;14.25;;;;;22.12;54.26;100587.59;5092286;28;51503;-82
2022/09/02 05:41:29;;;;;;;;;14.00;14.00;;;;;22.24;54.44;100605.25;5090642;28;45097;-83
2022/09/02 05:43:58;;;;;;;;;12.75;12.75;;;;;22.12;54.36;100579.56;5092309;28;44902;-83
2022/09/02 05:46:24;;;;;;;;;14.25;13.00;;;;;22.18;54.49;100596.44;5092718;28;45074;-82
2022/09/02 05:49:16;;;;;;;;;12.25;11.50;;;;;22.24;53.85;100613.28;5092939;28;45468;-83
2022/09/02 05:51:54;;;;;;;;;11.25;11.25;;;;;22.19;53.68;100606.22;5090638;28;45136;-83
2022/09/02 05:54:23;;;;;;;;;13.00;12.50;;;;;22.23;54.00;100611.53;5091050;28;45076;-82
2022/09/02 05:56:52;;;;;;;;;12.25;11.50;;;;;22.21;54.26;100607.09;5091715;28;45188;-83
2022/09/02 05:59:19;;;;;;;;;12.00;12.00;;;;;22.14;54.10;100599.16;5092499;28;46117;-82
2022/09/02 06:01:45;;;;;;;;;12.00;11.25;;;;;22.15;54.26;100608.06;5091146;28;45502;-82
2022/09/02 06:04:10;;;;;;;;;14.50;12.00;;;;;22.17;54.29;100619.66;5091603;28;45091;-82
2022/09/02 06:06:38;;;;;;;;;13.00;12.50;;;;;22.11;54.01;100599.19;5092427;28;44927;-82
2022/09/02 06:09:07;;;;;;;;;13.50;13.00;;;;;22.18;54.24;100609.81;5072818;28;46086;-83
2022/09/02 06:11:33;;;;;;;;;15.00;14.00;;;;;22.21;53.96;100617.78;5090952;28;45292;-83
2022/09/02 06:13:58;;;;;;;;;12.50;11.50;;;;;22.02;54.10;100582.34;5092508;28;45094;-83
2022/09/02 06:16:25;;;;;;;;;14.50;14.25;;;;;22.19;53.93;100616.94;5092108;28;45264;-83
2022/09/02 06:18:50;;;;;;;;;14.75;13.00;;;;;22.09;53.46;100592.94;5092151;28;45538;-82
2022/09/02 06:21:16;;;;;;;;;13.25;12.50;;;;;22.14;53.02;100614.34;5091765;28;45085;-82
2022/09/02 06:23:42;;;;;;;;;12.75;12.00;;;;;22.08;53.16;100617.97;5091512;28;45021;-81
2022/09/02 06:26:10;;;;;;;;;15.25;14.50;;;;;21.99;53.06;100612.72;5090554;28;44959;-83
2022/09/02 06:28:37;;;;;;;;;13.50;12.75;;;;;22.00;53.32;100611.81;5091337;28;45498;-82
2022/09/02 06:31:13;;;;;;;;;13.50;12.25;;;;;21.96;53.44;100615.44;5089898;28;45528;-83
2022/09/02 06:33:39;;;;;;;;;14.50;12.75;;;;;21.90;53.43;100616.41;5092514;28;45336;-82
2022/09/02 06:36:09;;;;;;;;;14.25;14.25;;;;;21.89;53.41;100605.75;5091406;28;44992;-83
2022/09/02 06:38:39;;;;;;;;;16.50;14.75;;;;;21.92;53.56;100608.38;5091339;28;45978;-84
2022/09/02 06:41:05;;;;;;;;;13.00;13.00;;;;;21.85;53.83;100602.22;5090546;28;45768;-82
2022/09/02 06:43:30;;;;;;;;;11.00;10.25;;;;;21.92;53.36;100603.03;5091943;28;44976;-83
2022/09/02 06:45:56;;;;;;;;;12.00;11.25;;;;;22.00;53.40;100603.78;5091398;28;44996;-83
2022/09/02 06:48:22;;;;;;;;;13.50;12.00;;;;;21.95;53.55;100586.91;5091604;28;45189;-82
2022/09/02 06:50:47;;;;;;;;;14.00;13.75;;;;;22.00;53.45;100593.09;5090827;28;45411;-83
2022/09/02 06:53:13;;;;;;;;;11.50;11.50;;;;;22.06;53.04;100589.44;5073129;28;45219;-83
2022/09/02 06:55:42;;;;;;;;;11.50;11.00;;;;;22.17;52.97;100608.94;5086631;28;45214;-83
2022/09/02 06:58:08;;;;;;;;;11.75;10.00;;;;;22.14;52.97;100607.19;5091173;28;44950;-83
2022/09/02 07:00:34;;;;;;;;;13.00;11.00;;;;;22.06;53.07;100593.00;5090761;28;45087;-83
2022/09/02 07:05:45;;;;;;;;;15.75;14.75;;;;;22.24;53.05;100615.97;5091219;28;45056;-83
2022/09/02 07:08:10;;;;;;;;;13.00;12.00;;;;;22.28;52.83;100614.13;5090686;28;45524;-83
2022/09/02 07:10:40;;;;;;;;;11.00;11.00;;;;;22.32;52.98;100615.84;5089801;28;44852;-83
2022/09/02 07:13:06;;;;;;;;;12.50;12.50;;;;;22.25;52.82;100596.31;5091431;28;45099;-82
2022/09/02 07:15:32;;;;;;;;;12.75;12.75;;;;;22.30;52.44;100588.19;5091139;28;45179;-82
2022/09/02 07:17:57;;;;;;;;;14.00;13.50;;;;;22.40;52.88;100600.53;5091403;28;45119;-83
2022/09/02 07:20:23;;;;;;;;;14.50;13.50;;;;;22.36;53.02;100591.69;5091532;28;45083;-83
2022/09/02 07:22:48;;;;;;;;;12.75;11.75;;;;;22.37;52.65;100592.56;5090780;28;44981;-83
2022/09/02 07:25:16;;;;;;;;;11.25;11.00;;;;;22.42;52.16;100597.84;5090530;28;45240;-82
2022/09/02 07:27:42;;;;;;;;;13.00;12.50;;;;;22.48;52.30;100608.47;5089432;28;45930;-83
2022/09/02 07:30:09;;;;;;;;;14.00;13.25;;;;;22.52;52.47;100613.75;5090704;28;45603;-83
2022/09/02 07:32:34;;;;;;;;;12.50;12.50;;;;;22.56;52.37;100601.16;5091392;28;45095;-83
2022/09/02 07:35:00;;;;;;;;;11.25;11.00;;;;;22.53;51.91;100587.84;5091035;28;44935;-82
2022/09/02 07:37:26;;;;;;;;;12.00;11.75;;;;;22.45;51.73;100582.59;5070417;28;46247;-84
2022/09/02 07:39:51;;;;;;;;;13.00;12.00;;;;;22.58;51.84;100612.75;5090157;28;45006;-83
2022/09/02 07:42:18;;;;;;;;;11.00;11.00;;;;;22.59;51.74;100609.16;5090017;28;45243;-84
2022/09/02 07:44:43;;;;;;;;;13.00;12.50;;;;;22.53;51.09;100602.09;5090829;27;45020;-83
2022/09/02 07:47:09;;;;;;;;;13.75;12.75;;;;;22.46;51.63;100595.06;5094667;28;45036;-83
2022/09/02 07:49:34;;;;;;;;;12.50;11.75;;;;;22.61;51.31;100613.59;5093739;28;45043;-82
2022/09/02 07:52:00;;;;;;;;;11.00;10.50;;;;;22.57;51.46;100617.22;5092086;28;45608;-83
2022/09/02 07:54:25;;;;;;;;;13.00;12.25;;;;;22.57;51.74;100614.53;5093950;28;45072;-82
2022/09/02 07:56:52;;;;;;;;;10.00;9.50;;;;;22.50;51.16;100618.22;5093020;28;45154;-83
2022/09/02 07:59:20;;;;;;;;;9.25;8.50;;;;;22.58;51.02;100640.41;5094123;28;45110;-82
2022/09/02 08:01:47;;;;;;;;;11.75;11.00;;;;;22.54;50.83;100641.38;5093770;28;45287;-82
2022/09/02 08:04:13;;;;;;;;;12.75;12.25;;;;;22.45;51.00;100641.50;5093996;28;45075;-83
2022/09/02 08:06:38;;;;;;;;;11.00;10.25;;;;;22.34;51.87;100624.75;5093774;28;45173;-82
2022/09/02 08:09:09;;;;;;;;;12.00;10.00;;;;;22.48;51.38;100652.19;5089562;28;45016;-83
2022/09/02 08:11:37;;;;;;;;;11.00;11.00;;;;;22.35;52.34;100638.09;5092279;28;45132;-83
2022/09/02 08:14:03;;;;;;;;;12.00;12.00;;;;;22.29;53.47;100646.22;5093589;28;45028;-82
2022/09/02 08:16:28;;;;;;;;;12.00;11.00;;;;;22.32;54.01;100674.75;5093844;28;45584;-83
2022/09/02 08:18:54;;;;;;;;;13.50;13.50;;;;;22.28;53.04;100681.94;5093602;28;45159;-82
2022/09/02 08:21:19;;;;;;;;;14.25;12.00;;;;;22.22;54.89;100689.19;5073382;28;45544;-82
2022/09/02 08:23:46;;;;;;;;;14.25;14.00;;;;;22.32;55.67;100722.97;5093860;28;44960;-82
2022/09/02 08:26:12;;;;;;;;;12.75;12.25;;;;;22.29;55.70;100717.63;5071703;28;47104;-83
2022/09/02 08:28:37;;;;;;;;;14.75;14.75;;;;;22.17;55.49;100699.97;5091969;28;45211;-83
2022/09/02 08:31:04;;;;;;;;;15.25;14.50;;;;;22.17;56.47;100699.97;5093927;28;45287;-83
2022/09/02 08:33:30;;;;;;;;;16.25;15.75;;;;;22.20;58.30;100710.63;5092436;28;45055;-83
2022/09/02 08:35:55;;;;;;;;;18.50;17.00;;;;;22.15;59.13;100691.94;5072064;28;46146;-82
2022/09/02 08:38:21;;;;;;;;;14.50;12.75;;;;;22.10;57.54;100677.69;5093640;28;45092;-82
2022/09/02 08:40:47;;;;;;;;;17.75;16.75;;;;;22.18;57.56;100700.84;5091140;28;45120;-83
2022/09/02 08:43:38;;;;;;;;;15.25;15.00;;;;;22.20;59.64;100704.38;5093209;28;45024;-83
2022/09/02 08:46:07;;;;;;;;;15.00;14.00;;;;;22.18;59.82;100691.03;5092405;28;45761;-83
2022/09/02 08:48:35;;;;;;;;;16.75;15.25;;;;;22.27;60.43;100701.59;5074922;28;45189;-82
2022/09/02 08:51:07;;;;;;;;;16.50;16.00;;;;;22.24;61.19;100682.00;5093652;28;44957;-83
2022/09/02 08:53:49;;;;;;;;;16.25;16.25;;;;;22.30;60.30;100696.19;5093601;28;44952;-82
2022/09/02 08:56:16;;;;;;;;;15.50;13.75;;;;;22.24;59.45;100680.22;5090037;28;45480;-81
2022/09/02 08:58:47;;;;;;;;;17.00;15.75;;;;;22.37;59.44;100686.28;5092789;28;45932;-83
2022/09/02 09:01:31;;;;;;;;;17.25;14.75;;;;;22.41;59.75;100682.63;5093704;28;44993;-82
2022/09/02 09:04:02;;;;;;;;;15.75;15.75;;;;;22.44;59.00;100701.34;5092655;28;44958;-82
2022/09/02 09:06:33;;;;;;;;;14.75;14.50;;;;;22.42;59.29;100705.84;5093287;28;45064;-83
2022/09/02 09:09:01;;;;;;;;;17.50;16.50;;;;;22.40;59.34;100694.25;5092941;28;45036;-83
2022/09/02 09:11:43;;;;;;;;;18.00;16.75;;;;;22.32;59.65;100672.97;5090134;28;45370;-83
2022/09/02 09:14:19;;;;;;;;;18.75;18.50;;;;;22.38;58.81;100682.69;5093010;28;45127;-83
2022/09/02 09:16:59;;;;;;;;;19.00;18.25;;;;;22.32;59.55;100670.28;5093094;28;45782;-83
2022/09/02 09:19:38;;;;;;;;;18.25;17.25;;;;;22.50;60.03;100692.34;5093126;28;45479;-83
2022/09/02 09:22:04;;;;;;;;;19.50;18.00;;;;;22.52;60.31;100667.31;5093026;28;45040;-82
2022/09/02 09:24:36;;;;;;;;;16.50;16.00;;;;;22.73;60.04;100675.91;5092333;28;45127;-82
2022/09/02 09:27:08;;;;;;;;;16.50;15.50;;;;;22.71;58.65;100659.88;5090930;28;45554;-83
2022/09/02 09:29:35;;;;;;;;;18.75;18.25;;;;;22.95;59.18;100685.38;5092721;28;45511;-83
2022/09/02 09:32:01;;;;;;;;;20.25;20.00;;;;;23.01;59.31;100677.25;5091997;28;45087;-83
2022/09/02 09:34:52;;;;;;;;;15.75;15.50;;;;;23.04;57.52;100665.56;5092349;28;44910;-83
2022/09/02 09:37:37;;;;;;;;;13.75;13.75;;;;;22.99;58.42;100657.59;5091876;27;45474;-83
2022/09/02 09:40:20;;;;;;;;;15.50;15.25;;;;;23.10;58.12;100666.38;5092098;28;45617;-82
2022/09/02 09:42:54;;;;;;;;;14.00;14.00;;;;;23.15;58.10;100666.25;5092062;28;44958;-82
2022/09/02 09:45:21;;;;;;;;;16.00;15.75;;;;;23.21;58.81;100676.88;5092825;28;44925;-83
2022/09/02 09:48:06;;;;;;;;;16.25;15.25;;;;;23.23;57.94;100676.84;5091816;28;46289;-82
2022/09/02 09:50:31;;;;;;;;;17.50;16.00;;;;;23.20;56.96;100669.72;5091175;28;45647;-82
2022/09/02 09:53:31;;;;;;;;;18.00;16.75;;;;;23.18;56.50;100655.47;5092909;28;45059;-82
2022/09/02 09:56:04;;;;;;;;;16.25;15.50;;;;;23.28;56.88;100669.59;5066558;28;45287;-82
2022/09/02 09:58:40;;;;;;;;;17.50;16.75;;;;;23.27;57.55;100657.13;5091421;28;45633;-82
2022/09/02 10:01:16;;;;;;;;;17.25;16.50;;;;;23.32;57.47;100663.28;5090397;28;45948;-83
2022/09/02 10:03:51;;;;;;;;;15.00;14.00;;;;;23.20;57.36;100639.34;5092434;28;45222;-83
2022/09/02 10:06:43;;;;;;;;;17.25;17.25;;;;;23.36;57.37;100665.88;5091900;28;45164;-82
2022/09/02 10:09:17;;;;;;;;;17.00;15.75;;;;;23.37;56.48;100661.38;5090619;28;44997;-83
2022/09/02 10:11:56;;;;;;;;;16.50;15.50;;;;;23.37;56.12;100654.22;5090549;28;45344;-80
2022/09/02 10:14:46;;;;;;;;;15.25;14.50;;;;;23.34;55.84;100645.34;5092797;28;45042;-82
2022/09/02 10:17:20;;;;;;;;;17.75;17.50;;;;;23.28;56.16;100649.03;5084179;28;45066;-82
2022/09/02 10:20:18;;;;;;;;;17.00;17.00;;;;;23.24;56.45;100649.13;5092165;28;45155;-83
2022/09/02 10:22:59;;;;;;;;;18.00;16.75;;;;;23.20;56.00;100642.03;5080608;28;45549;-84
2022/09/02 10:25:43;;;;;;;;;16.50;15.50;;;;;23.18;56.30;100656.38;5089787;28;45211;-82
2022/09/02 10:28:33;;;;;;;;;15.25;14.00;;;;;23.10;56.02;100641.31;5090918;28;45376;-82
2022/09/02 10:31:24;;;;;;;;;17.50;17.25;;;;;23.15;56.82;100652.84;5092108;28;45620;-83
2022/09/02 10:34:05;;;;;;;;;16.50;15.75;;;;;23.04;57.35;100641.44;5091248;28;45666;-83
2022/09/02 10:36:48;;;;;;;;;16.25;16.25;;;;;23.11;58.16;100652.03;5073390;28;45064;-83
2022/09/02 10:39:26;;;;;;;;;15.50;14.75;;;;;23.13;57.17;100652.88;5073644;28;44961;-83
2022/09/02 10:42:02;;;;;;;;;16.00;15.75;;;;;23.03;57.35;100627.16;5089562;28;45112;-83
2022/09/02 10:44:32;;;;;;;;;17.25;16.00;;;;;23.01;57.03;100612.91;5091823;28;45622;-83
2022/09/02 10:47:37;;;;;;;;;20.50;18.50;;;;;23.12;57.81;100643.06;5091433;28;45220;-82
2022/09/02 10:50:08;;;;;;;;;18.00;17.50;;;;;23.09;58.50;100634.19;5060360;28;45213;-83
2022/09/02 10:53:08;;;;;;;;;19.00;18.75;;;;;22.95;58.28;100604.97;5073352;28;47040;-83
2022/09/02 10:55:49;;;;;;;;;20.25;19.00;;;;;23.11;58.75;100627.91;5089786;28;45622;-82
2022/09/02 10:58:32;;;;;;;;;18.75;17.75;;;;;23.14;58.16;100618.91;5091684;28;44946;-83
2022/09/02 11:00:57;;;;;;;;;22.50;21.00;;;;;23.17;58.76;100609.00;5091598;28;45155;-82
2022/09/02 11:03:52;;;;;;;;;19.00;18.75;;;;;23.17;59.48;100606.34;5091530;28;45072;-83
2022/09/02 11:06:27;;;;;;;;;20.25;20.00;;;;;23.22;59.04;100619.66;5091384;28;45046;-83
2022/09/02 11:08:58;;;;;;;;;21.25;20.00;;;;;23.11;58.68;100590.38;5091579;28;45068;-82
2022/09/02 11:11:23;;;;;;;;;20.25;19.50;;;;;23.25;58.89;100605.28;5087575;28;45284;-83
2022/09/02 11:13:51;;;;;;;;;20.33;19.33;;;;;23.26;59.31;100610.63;5091413;28;45689;-83
2022/09/02 11:16:27;;;;;;;;;19.25;18.25;;;;;23.29;58.79;100593.59;5091207;28;45671;-82
2022/09/02 11:19:05;;;;;;;;;22.00;20.75;;;;;23.15;59.74;100562.59;5091337;27;45092;-83
2022/09/02 11:22:03;;;;;;;;;20.50;20.25;;;;;23.31;59.23;100592.66;5094577;28;45391;-83
2022/09/02 11:24:42;;;;;;;;;20.25;19.25;;;;;23.33;58.74;100580.09;5094393;28;45013;-83